Coleville, Canada
Current Conditions -  °F | °C
As of 9:00 AM on Saturday 20 Dec 2014 (Local Time) from CYKY Reporting Station
Broken Clouds Broken Clouds  
Wind Chill: 11°   Ceiling: 22000
Heat Index: 19°   Visibility: 8mi
Dew Point: 18°   Wind: 6mph
Humidity: 93%   Direction: 320°NW
Pressure: 29.7"   Gusts: NA
Location:  51.7°N, 109.23°W
Report Text: CYKY 201500Z 32005KT 8SM FEW015 FEW040 SCT100 BKN220 M07/M08 A2970 RMK SC1SC1AC2CI3 FG SLP096
Loading
Personal Weather Stations






























Interactive Weather Map New forecast layout! Learn more

10-Day Weather Forecast

Advertisements
Track Severe Weather on mobile